sensor_id;sensor_type;location;lat;lon;timestamp;temperature;humidity
78448;SHT31;67742;51.972;5.682;2023-02-28T00:00:15;5.3;54.4
78448;SHT31;67742;51.972;5.682;2023-02-28T00:02:46;5.2;54.5
78448;SHT31;67742;51.972;5.682;2023-02-28T00:05:19;5.2;54.7
78448;SHT31;67742;51.972;5.682;2023-02-28T00:07:50;5.2;54.7
78448;SHT31;67742;51.972;5.682;2023-02-28T00:10:22;5.2;54.8
78448;SHT31;67742;51.972;5.682;2023-02-28T00:12:54;5.2;55.0
78448;SHT31;67742;51.972;5.682;2023-02-28T00:15:24;5.2;55.0
78448;SHT31;67742;51.972;5.682;2023-02-28T00:17:54;5.2;55.0
78448;SHT31;67742;51.972;5.682;2023-02-28T00:20:24;5.2;55.1
78448;SHT31;67742;51.972;5.682;2023-02-28T00:22:54;5.2;55.2
78448;SHT31;67742;51.972;5.682;2023-02-28T00:25:25;5.2;55.3
78448;SHT31;67742;51.972;5.682;2023-02-28T00:27:54;5.2;55.5
78448;SHT31;67742;51.972;5.682;2023-02-28T00:30:24;5.2;55.7
78448;SHT31;67742;51.972;5.682;2023-02-28T00:32:54;5.1;55.9
78448;SHT31;67742;51.972;5.682;2023-02-28T00:35:23;5.1;56.2
78448;SHT31;67742;51.972;5.682;2023-02-28T00:37:52;5.1;56.1
78448;SHT31;67742;51.972;5.682;2023-02-28T00:40:22;5.2;56.0
78448;SHT31;67742;51.972;5.682;2023-02-28T00:42:51;5.2;55.9
78448;SHT31;67742;51.972;5.682;2023-02-28T00:45:21;5.2;55.8
78448;SHT31;67742;51.972;5.682;2023-02-28T00:47:50;5.2;56.0
78448;SHT31;67742;51.972;5.682;2023-02-28T00:50:20;5.2;56.0
78448;SHT31;67742;51.972;5.682;2023-02-28T00:52:50;5.2;55.9
78448;SHT31;67742;51.972;5.682;2023-02-28T00:55:19;5.2;56.0
78448;SHT31;67742;51.972;5.682;2023-02-28T00:57:49;5.2;56.2
78448;SHT31;67742;51.972;5.682;2023-02-28T01:00:19;5.2;56.2
78448;SHT31;67742;51.972;5.682;2023-02-28T01:02:48;5.2;56.0
78448;SHT31;67742;51.972;5.682;2023-02-28T01:05:18;5.2;56.2
78448;SHT31;67742;51.972;5.682;2023-02-28T01:07:47;5.2;56.0
78448;SHT31;67742;51.972;5.682;2023-02-28T01:10:17;5.2;56.1
78448;SHT31;67742;51.972;5.682;2023-02-28T01:12:48;5.2;56.0
78448;SHT31;67742;51.972;5.682;2023-02-28T01:15:17;5.2;55.9
78448;SHT31;67742;51.972;5.682;2023-02-28T01:17:47;5.2;55.7
78448;SHT31;67742;51.972;5.682;2023-02-28T01:20:16;5.2;55.7
78448;SHT31;67742;51.972;5.682;2023-02-28T01:22:46;5.2;55.8
78448;SHT31;67742;51.972;5.682;2023-02-28T01:25:16;5.2;56.0
78448;SHT31;67742;51.972;5.682;2023-02-28T01:27:45;5.3;56.1
78448;SHT31;67742;51.972;5.682;2023-02-28T01:30:16;5.3;56.0
78448;SHT31;67742;51.972;5.682;2023-02-28T01:32:45;5.3;56.0
78448;SHT31;67742;51.972;5.682;2023-02-28T01:35:15;5.3;55.8
78448;SHT31;67742;51.972;5.682;2023-02-28T01:37:45;5.3;55.9
78448;SHT31;67742;51.972;5.682;2023-02-28T01:40:17;5.3;56.1
78448;SHT31;67742;51.972;5.682;2023-02-28T01:42:47;5.3;56.0
78448;SHT31;67742;51.972;5.682;2023-02-28T01:45:22;5.3;55.9
78448;SHT31;67742;51.972;5.682;2023-02-28T01:47:57;5.3;56.1
78448;SHT31;67742;51.972;5.682;2023-02-28T01:50:32;5.3;56.1
78448;SHT31;67742;51.972;5.682;2023-02-28T01:53:08;5.3;56.0
78448;SHT31;67742;51.972;5.682;2023-02-28T01:55:41;5.3;56.0
78448;SHT31;67742;51.972;5.682;2023-02-28T01:58:15;5.3;55.9
78448;SHT31;67742;51.972;5.682;2023-02-28T02:00:45;5.3;56.1
78448;SHT31;67742;51.972;5.682;2023-02-28T02:03:18;5.3;56.1
78448;SHT31;67742;51.972;5.682;2023-02-28T02:05:49;5.3;56.1
78448;SHT31;67742;51.972;5.682;2023-02-28T02:08:24;5.3;56.3
78448;SHT31;67742;51.972;5.682;2023-02-28T02:10:56;5.3;56.3
78448;SHT31;67742;51.972;5.682;2023-02-28T02:13:40;5.3;56.3
78448;SHT31;67742;51.972;5.682;2023-02-28T02:16:27;5.3;56.2
78448;SHT31;67742;51.972;5.682;2023-02-28T02:19:09;5.3;56.1
78448;SHT31;67742;51.972;5.682;2023-02-28T02:22:00;5.3;56.0
78448;SHT31;67742;51.972;5.682;2023-02-28T02:25:01;5.4;56.0
78448;SHT31;67742;51.972;5.682;2023-02-28T02:28:22;5.4;56.1
78448;SHT31;67742;51.972;5.682;2023-02-28T02:31:32;5.4;56.0
78448;SHT31;67742;51.972;5.682;2023-02-28T02:34:38;5.4;56.0
78448;SHT31;67742;51.972;5.682;2023-02-28T02:37:24;5.4;55.9
78448;SHT31;67742;51.972;5.682;2023-02-28T02:40:04;5.4;55.7
78448;SHT31;67742;51.972;5.682;2023-02-28T02:42:44;5.4;55.6
78448;SHT31;67742;51.972;5.682;2023-02-28T02:45:19;5.4;55.9
78448;SHT31;67742;51.972;5.682;2023-02-28T02:47:52;5.5;55.9
78448;SHT31;67742;51.972;5.682;2023-02-28T02:50:29;5.5;55.7
78448;SHT31;67742;51.972;5.682;2023-02-28T02:53:02;5.5;55.7
78448;SHT31;67742;51.972;5.682;2023-02-28T02:55:38;5.5;55.5
78448;SHT31;67742;51.972;5.682;2023-02-28T02:58:13;5.5;55.5
78448;SHT31;67742;51.972;5.682;2023-02-28T03:00:48;5.6;55.4
78448;SHT31;67742;51.972;5.682;2023-02-28T03:03:22;5.6;55.4
78448;SHT31;67742;51.972;5.682;2023-02-28T03:05:59;5.6;55.3
78448;SHT31;67742;51.972;5.682;2023-02-28T03:08:33;5.5;55.3
78448;SHT31;67742;51.972;5.682;2023-02-28T03:11:05;5.5;55.3
78448;SHT31;67742;51.972;5.682;2023-02-28T03:13:55;5.5;55.3
78448;SHT31;67742;51.972;5.682;2023-02-28T03:16:39;5.5;55.5
78448;SHT31;67742;51.972;5.682;2023-02-28T03:19:38;5.5;55.5
78448;SHT31;67742;51.972;5.682;2023-02-28T03:22:44;5.5;55.6
78448;SHT31;67742;51.972;5.682;2023-02-28T03:25:22;5.5;55.5
78448;SHT31;67742;51.972;5.682;2023-02-28T03:28:02;5.5;55.5
78448;SHT31;67742;51.972;5.682;2023-02-28T03:30:41;5.5;55.5
78448;SHT31;67742;51.972;5.682;2023-02-28T03:33:16;5.5;55.9
78448;SHT31;67742;51.972;5.682;2023-02-28T03:35:53;5.6;55.8
78448;SHT31;67742;51.972;5.682;2023-02-28T03:38:29;5.6;55.4
78448;SHT31;67742;51.972;5.682;2023-02-28T03:41:06;5.6;55.2
78448;SHT31;67742;51.972;5.682;2023-02-28T03:43:43;5.6;55.3
78448;SHT31;67742;51.972;5.682;2023-02-28T03:46:22;5.6;55.5
78448;SHT31;67742;51.972;5.682;2023-02-28T03:48:57;5.6;54.4
78448;SHT31;67742;51.972;5.682;2023-02-28T03:51:32;5.6;54.4
78448;SHT31;67742;51.972;5.682;2023-02-28T03:54:07;5.6;54.0
78448;SHT31;67742;51.972;5.682;2023-02-28T03:56:47;5.6;53.7
78448;SHT31;67742;51.972;5.682;2023-02-28T03:59:25;5.6;53.4
78448;SHT31;67742;51.972;5.682;2023-02-28T04:01:57;5.6;53.6
78448;SHT31;67742;51.972;5.682;2023-02-28T04:04:28;5.6;52.7
78448;SHT31;67742;51.972;5.682;2023-02-28T04:07:05;5.6;52.8
78448;SHT31;67742;51.972;5.682;2023-02-28T04:09:35;5.6;51.7
78448;SHT31;67742;51.972;5.682;2023-02-28T04:12:05;5.6;51.4
78448;SHT31;67742;51.972;5.682;2023-02-28T04:14:35;5.6;51.5
78448;SHT31;67742;51.972;5.682;2023-02-28T04:17:04;5.6;51.5
78448;SHT31;67742;51.972;5.682;2023-02-28T04:19:34;5.6;51.6
78448;SHT31;67742;51.972;5.682;2023-02-28T04:22:04;5.6;51.3
78448;SHT31;67742;51.972;5.682;2023-02-28T04:24:33;5.5;51.3
78448;SHT31;67742;51.972;5.682;2023-02-28T04:27:03;5.5;51.3
78448;SHT31;67742;51.972;5.682;2023-02-28T04:29:32;5.5;51.4
78448;SHT31;67742;51.972;5.682;2023-02-28T04:32:02;5.5;51.7
78448;SHT31;67742;51.972;5.682;2023-02-28T04:34:32;5.4;52.1
78448;SHT31;67742;51.972;5.682;2023-02-28T04:37:02;5.4;52.3
78448;SHT31;67742;51.972;5.682;2023-02-28T04:39:36;5.4;52.8
78448;SHT31;67742;51.972;5.682;2023-02-28T04:42:06;5.4;53.1
78448;SHT31;67742;51.972;5.682;2023-02-28T04:44:36;5.5;53.5
78448;SHT31;67742;51.972;5.682;2023-02-28T04:47:05;5.5;53.6
78448;SHT31;67742;51.972;5.682;2023-02-28T04:49:37;5.5;53.8
78448;SHT31;67742;51.972;5.682;2023-02-28T04:52:08;5.5;53.5
78448;SHT31;67742;51.972;5.682;2023-02-28T04:54:38;5.6;53.5
78448;SHT31;67742;51.972;5.682;2023-02-28T04:57:10;5.6;53.7
78448;SHT31;67742;51.972;5.682;2023-02-28T04:59:39;5.6;53.4
78448;SHT31;67742;51.972;5.682;2023-02-28T05:02:08;5.6;53.2
78448;SHT31;67742;51.972;5.682;2023-02-28T05:04:38;5.6;53.0
78448;SHT31;67742;51.972;5.682;2023-02-28T05:07:09;5.7;53.0
78448;SHT31;67742;51.972;5.682;2023-02-28T05:09:38;5.7;53.0
78448;SHT31;67742;51.972;5.682;2023-02-28T05:12:09;5.7;53.0
78448;SHT31;67742;51.972;5.682;2023-02-28T05:14:39;5.7;53.2
78448;SHT31;67742;51.972;5.682;2023-02-28T05:17:08;5.7;52.8
78448;SHT31;67742;51.972;5.682;2023-02-28T05:19:38;5.7;52.5
78448;SHT31;67742;51.972;5.682;2023-02-28T05:22:15;5.7;52.7
78448;SHT31;67742;51.972;5.682;2023-02-28T05:24:45;5.7;53.0
78448;SHT31;67742;51.972;5.682;2023-02-28T05:27:15;5.7;53.1
78448;SHT31;67742;51.972;5.682;2023-02-28T05:29:44;5.8;53.2
78448;SHT31;67742;51.972;5.682;2023-02-28T05:32:13;5.8;52.9
78448;SHT31;67742;51.972;5.682;2023-02-28T05:34:43;5.8;52.5
78448;SHT31;67742;51.972;5.682;2023-02-28T05:37:14;5.8;52.2
78448;SHT31;67742;51.972;5.682;2023-02-28T05:39:44;5.8;52.5
78448;SHT31;67742;51.972;5.682;2023-02-28T05:42:14;5.8;52.7
78448;SHT31;67742;51.972;5.682;2023-02-28T05:44:43;5.8;52.7
78448;SHT31;67742;51.972;5.682;2023-02-28T05:47:13;5.8;52.8
78448;SHT31;67742;51.972;5.682;2023-02-28T05:49:44;5.8;52.9
78448;SHT31;67742;51.972;5.682;2023-02-28T05:52:13;5.8;52.6
78448;SHT31;67742;51.972;5.682;2023-02-28T05:54:43;5.8;52.7
78448;SHT31;67742;51.972;5.682;2023-02-28T05:57:12;5.8;52.8
78448;SHT31;67742;51.972;5.682;2023-02-28T05:59:41;5.8;52.7
78448;SHT31;67742;51.972;5.682;2023-02-28T06:02:14;5.8;52.2
78448;SHT31;67742;51.972;5.682;2023-02-28T06:04:45;5.8;51.9
78448;SHT31;67742;51.972;5.682;2023-02-28T06:07:16;5.9;52.3
78448;SHT31;67742;51.972;5.682;2023-02-28T06:09:46;5.9;52.4
78448;SHT31;67742;51.972;5.682;2023-02-28T06:12:15;5.9;52.2
78448;SHT31;67742;51.972;5.682;2023-02-28T06:14:47;5.9;52.3
78448;SHT31;67742;51.972;5.682;2023-02-28T06:17:16;5.9;52.3
78448;SHT31;67742;51.972;5.682;2023-02-28T06:19:46;5.9;52.2
78448;SHT31;67742;51.972;5.682;2023-02-28T06:22:17;6.0;52.2
78448;SHT31;67742;51.972;5.682;2023-02-28T06:24:46;6.0;51.6
78448;SHT31;67742;51.972;5.682;2023-02-28T06:27:16;6.0;51.8
78448;SHT31;67742;51.972;5.682;2023-02-28T06:29:48;6.0;52.0
78448;SHT31;67742;51.972;5.682;2023-02-28T06:32:19;6.0;51.7
78448;SHT31;67742;51.972;5.682;2023-02-28T06:34:48;6.0;51.4
78448;SHT31;67742;51.972;5.682;2023-02-28T06:37:18;6.0;51.5
78448;SHT31;67742;51.972;5.682;2023-02-28T06:39:50;6.0;51.7
78448;SHT31;67742;51.972;5.682;2023-02-28T06:42:20;6.0;51.9
78448;SHT31;67742;51.972;5.682;2023-02-28T06:44:50;6.0;52.2
78448;SHT31;67742;51.972;5.682;2023-02-28T06:47:19;6.0;52.2
78448;SHT31;67742;51.972;5.682;2023-02-28T06:49:52;6.0;52.0
78448;SHT31;67742;51.972;5.682;2023-02-28T06:52:21;6.0;51.8
78448;SHT31;67742;51.972;5.682;2023-02-28T06:54:51;6.0;51.6
78448;SHT31;67742;51.972;5.682;2023-02-28T06:57:25;6.0;51.6
78448;SHT31;67742;51.972;5.682;2023-02-28T06:59:59;6.0;51.5
78448;SHT31;67742;51.972;5.682;2023-02-28T07:02:30;6.0;51.6
78448;SHT31;67742;51.972;5.682;2023-02-28T07:05:00;5.9;51.5
78448;SHT31;67742;51.972;5.682;2023-02-28T07:07:31;5.9;52.0
78448;SHT31;67742;51.972;5.682;2023-02-28T07:10:04;5.9;51.9
78448;SHT31;67742;51.972;5.682;2023-02-28T07:12:33;5.9;52.0
78448;SHT31;67742;51.972;5.682;2023-02-28T07:15:04;5.8;51.9
78448;SHT31;67742;51.972;5.682;2023-02-28T07:17:33;5.8;51.8
78448;SHT31;67742;51.972;5.682;2023-02-28T07:20:03;5.8;51.7
78448;SHT31;67742;51.972;5.682;2023-02-28T07:22:34;5.8;52.0
78448;SHT31;67742;51.972;5.682;2023-02-28T07:25:03;5.7;52.4
78448;SHT31;67742;51.972;5.682;2023-02-28T07:27:35;5.7;52.6
78448;SHT31;67742;51.972;5.682;2023-02-28T07:30:06;5.7;52.6
78448;SHT31;67742;51.972;5.682;2023-02-28T07:32:36;5.7;52.8
78448;SHT31;67742;51.972;5.682;2023-02-28T07:35:07;5.7;52.9
78448;SHT31;67742;51.972;5.682;2023-02-28T07:37:37;5.7;52.9
78448;SHT31;67742;51.972;5.682;2023-02-28T07:40:10;5.7;52.7
78448;SHT31;67742;51.972;5.682;2023-02-28T07:42:41;5.7;52.5
78448;SHT31;67742;51.972;5.682;2023-02-28T07:45:12;5.6;52.5
78448;SHT31;67742;51.972;5.682;2023-02-28T07:47:43;5.6;53.2
78448;SHT31;67742;51.972;5.682;2023-02-28T07:50:15;5.6;52.9
78448;SHT31;67742;51.972;5.682;2023-02-28T07:52:44;5.6;52.3
78448;SHT31;67742;51.972;5.682;2023-02-28T07:55:14;5.7;52.2
78448;SHT31;67742;51.972;5.682;2023-02-28T07:57:46;5.7;51.8
78448;SHT31;67742;51.972;5.682;2023-02-28T08:00:16;5.7;51.6
78448;SHT31;67742;51.972;5.682;2023-02-28T08:02:46;5.7;49.5
78448;SHT31;67742;51.972;5.682;2023-02-28T08:05:18;5.7;49.7
78448;SHT31;67742;51.972;5.682;2023-02-28T08:07:48;5.8;48.9
78448;SHT31;67742;51.972;5.682;2023-02-28T08:10:19;5.8;46.6
78448;SHT31;67742;51.972;5.682;2023-02-28T08:12:48;5.8;44.9
78448;SHT31;67742;51.972;5.682;2023-02-28T08:15:17;5.9;42.4
78448;SHT31;67742;51.972;5.682;2023-02-28T08:17:47;5.9;43.9
78448;SHT31;67742;51.972;5.682;2023-02-28T08:20:18;6.0;43.5
78448;SHT31;67742;51.972;5.682;2023-02-28T08:22:48;6.0;43.0
78448;SHT31;67742;51.972;5.682;2023-02-28T08:25:18;6.1;42.2
78448;SHT31;67742;51.972;5.682;2023-02-28T08:27:50;6.1;41.0
78448;SHT31;67742;51.972;5.682;2023-02-28T08:30:21;6.1;41.7
78448;SHT31;67742;51.972;5.682;2023-02-28T08:32:50;6.2;39.3
78448;SHT31;67742;51.972;5.682;2023-02-28T08:35:20;6.2;39.0
78448;SHT31;67742;51.972;5.682;2023-02-28T08:37:49;6.2;39.8
78448;SHT31;67742;51.972;5.682;2023-02-28T08:40:19;6.2;39.6
78448;SHT31;67742;51.972;5.682;2023-02-28T08:42:49;6.2;39.8
78448;SHT31;67742;51.972;5.682;2023-02-28T08:45:20;6.3;39.7
78448;SHT31;67742;51.972;5.682;2023-02-28T08:47:50;6.3;39.6
78448;SHT31;67742;51.972;5.682;2023-02-28T08:50:20;6.3;38.8
78448;SHT31;67742;51.972;5.682;2023-02-28T08:52:50;6.3;39.4
78448;SHT31;67742;51.972;5.682;2023-02-28T08:55:19;6.3;40.9
78448;SHT31;67742;51.972;5.682;2023-02-28T08:57:49;6.3;40.6
78448;SHT31;67742;51.972;5.682;2023-02-28T09:00:21;6.4;39.7
78448;SHT31;67742;51.972;5.682;2023-02-28T09:02:50;6.4;39.3
78448;SHT31;67742;51.972;5.682;2023-02-28T09:05:20;6.4;39.1
78448;SHT31;67742;51.972;5.682;2023-02-28T09:07:51;6.4;38.6
78448;SHT31;67742;51.972;5.682;2023-02-28T09:10:20;6.4;38.1
78448;SHT31;67742;51.972;5.682;2023-02-28T09:12:51;6.4;37.2
78448;SHT31;67742;51.972;5.682;2023-02-28T09:15:21;6.4;36.7
78448;SHT31;67742;51.972;5.682;2023-02-28T09:17:50;6.4;37.7
78448;SHT31;67742;51.972;5.682;2023-02-28T09:20:20;6.4;36.5
78448;SHT31;67742;51.972;5.682;2023-02-28T09:22:49;6.4;35.7
78448;SHT31;67742;51.972;5.682;2023-02-28T09:25:19;6.4;35.1
78448;SHT31;67742;51.972;5.682;2023-02-28T09:27:48;6.4;35.2
78448;SHT31;67742;51.972;5.682;2023-02-28T09:30:18;6.4;35.4
78448;SHT31;67742;51.972;5.682;2023-02-28T09:32:48;6.4;36.3
78448;SHT31;67742;51.972;5.682;2023-02-28T09:35:20;6.4;35.6
78448;SHT31;67742;51.972;5.682;2023-02-28T09:37:51;6.4;35.2
78448;SHT31;67742;51.972;5.682;2023-02-28T09:40:24;6.4;36.3
78448;SHT31;67742;51.972;5.682;2023-02-28T09:42:57;6.4;36.1
78448;SHT31;67742;51.972;5.682;2023-02-28T09:45:31;6.4;36.2
78448;SHT31;67742;51.972;5.682;2023-02-28T09:48:06;6.5;36.5
78448;SHT31;67742;51.972;5.682;2023-02-28T09:50:43;6.5;37.6
78448;SHT31;67742;51.972;5.682;2023-02-28T09:53:20;6.5;36.5
78448;SHT31;67742;51.972;5.682;2023-02-28T09:55:58;6.6;35.7
78448;SHT31;67742;51.972;5.682;2023-02-28T09:58:35;6.6;35.6
78448;SHT31;67742;51.972;5.682;2023-02-28T10:01:18;6.7;35.4
78448;SHT31;67742;51.972;5.682;2023-02-28T10:03:56;6.7;35.5
78448;SHT31;67742;51.972;5.682;2023-02-28T10:06:31;6.8;34.7
78448;SHT31;67742;51.972;5.682;2023-02-28T10:09:07;6.8;34.7
78448;SHT31;67742;51.972;5.682;2023-02-28T10:11:44;6.8;35.1
78448;SHT31;67742;51.972;5.682;2023-02-28T10:14:16;6.9;35.0
78448;SHT31;67742;51.972;5.682;2023-02-28T10:16:51;6.9;35.5
78448;SHT31;67742;51.972;5.682;2023-02-28T10:19:30;7.0;34.4
78448;SHT31;67742;51.972;5.682;2023-02-28T10:22:08;7.0;34.6
78448;SHT31;67742;51.972;5.682;2023-02-28T10:24:43;7.0;35.3
78448;SHT31;67742;51.972;5.682;2023-02-28T10:27:17;7.1;34.4
78448;SHT31;67742;51.972;5.682;2023-02-28T10:29:50;7.1;35.6
78448;SHT31;67742;51.972;5.682;2023-02-28T10:32:23;7.1;35.4
78448;SHT31;67742;51.972;5.682;2023-02-28T10:34:59;7.2;34.5
78448;SHT31;67742;51.972;5.682;2023-02-28T10:37:29;7.2;34.7
78448;SHT31;67742;51.972;5.682;2023-02-28T10:39:59;7.2;34.1
78448;SHT31;67742;51.972;5.682;2023-02-28T10:42:30;7.3;35.6
78448;SHT31;67742;51.972;5.682;2023-02-28T10:45:10;7.3;35.8
78448;SHT31;67742;51.972;5.682;2023-02-28T10:47:52;7.4;35.1
78448;SHT31;67742;51.972;5.682;2023-02-28T10:50:33;7.4;35.3
78448;SHT31;67742;51.972;5.682;2023-02-28T10:54:15;7.5;36.2
78448;SHT31;67742;51.972;5.682;2023-02-28T10:56:46;7.5;35.0
78448;SHT31;67742;51.972;5.682;2023-02-28T10:59:28;7.6;36.1
78448;SHT31;67742;51.972;5.682;2023-02-28T11:01:59;7.7;34.7
78448;SHT31;67742;51.972;5.682;2023-02-28T11:04:36;7.7;35.1
78448;SHT31;67742;51.972;5.682;2023-02-28T11:07:18;7.7;35.3
78448;SHT31;67742;51.972;5.682;2023-02-28T11:09:50;7.8;34.7
78448;SHT31;67742;51.972;5.682;2023-02-28T11:12:25;7.9;34.1
78448;SHT31;67742;51.972;5.682;2023-02-28T11:14:59;7.9;34.5
78448;SHT31;67742;51.972;5.682;2023-02-28T11:17:31;7.9;34.5
78448;SHT31;67742;51.972;5.682;2023-02-28T11:20:04;8.0;34.5
78448;SHT31;67742;51.972;5.682;2023-02-28T11:22:38;8.0;34.4
78448;SHT31;67742;51.972;5.682;2023-02-28T11:25:20;8.0;34.7
78448;SHT31;67742;51.972;5.682;2023-02-28T11:27:52;8.1;35.4
78448;SHT31;67742;51.972;5.682;2023-02-28T11:30:32;8.1;34.1
78448;SHT31;67742;51.972;5.682;2023-02-28T11:33:20;8.1;34.4
78448;SHT31;67742;51.972;5.682;2023-02-28T11:35:52;8.2;33.9
78448;SHT31;67742;51.972;5.682;2023-02-28T11:38:26;8.2;34.2
78448;SHT31;67742;51.972;5.682;2023-02-28T11:41:16;8.3;34.0
78448;SHT31;67742;51.972;5.682;2023-02-28T11:44:00;8.3;33.4
78448;SHT31;67742;51.972;5.682;2023-02-28T11:46:40;8.3;34.2
78448;SHT31;67742;51.972;5.682;2023-02-28T11:49:26;8.4;33.7
78448;SHT31;67742;51.972;5.682;2023-02-28T11:52:01;8.4;33.0
78448;SHT31;67742;51.972;5.682;2023-02-28T11:54:49;8.4;33.1
78448;SHT31;67742;51.972;5.682;2023-02-28T11:57:37;8.4;32.8
78448;SHT31;67742;51.972;5.682;2023-02-28T12:00:25;8.4;33.4
78448;SHT31;67742;51.972;5.682;2023-02-28T12:03:07;8.4;33.9
78448;SHT31;67742;51.972;5.682;2023-02-28T12:05:44;8.5;33.3
78448;SHT31;67742;51.972;5.682;2023-02-28T12:08:31;8.5;33.0
78448;SHT31;67742;51.972;5.682;2023-02-28T12:11:13;8.5;32.8
78448;SHT31;67742;51.972;5.682;2023-02-28T12:13:56;8.6;32.1
78448;SHT31;67742;51.972;5.682;2023-02-28T12:16:40;8.6;32.9
78448;SHT31;67742;51.972;5.682;2023-02-28T12:19:18;8.7;32.1
78448;SHT31;67742;51.972;5.682;2023-02-28T12:22:18;8.7;32.2
78448;SHT31;67742;51.972;5.682;2023-02-28T12:25:22;8.8;32.3
78448;SHT31;67742;51.972;5.682;2023-02-28T12:27:56;8.9;31.6
78448;SHT31;67742;51.972;5.682;2023-02-28T12:30:31;8.9;32.2
78448;SHT31;67742;51.972;5.682;2023-02-28T12:33:07;9.0;31.7
78448;SHT31;67742;51.972;5.682;2023-02-28T12:35:43;9.0;31.8
78448;SHT31;67742;51.972;5.682;2023-02-28T12:38:20;9.1;31.4
78448;SHT31;67742;51.972;5.682;2023-02-28T12:40:58;9.1;31.2
78448;SHT31;67742;51.972;5.682;2023-02-28T12:43:34;9.2;31.4
78448;SHT31;67742;51.972;5.682;2023-02-28T12:46:12;9.2;31.1
78448;SHT31;67742;51.972;5.682;2023-02-28T12:48:49;9.2;31.6
78448;SHT31;67742;51.972;5.682;2023-02-28T12:51:21;9.3;31.3
78448;SHT31;67742;51.972;5.682;2023-02-28T12:53:58;9.3;31.3
78448;SHT31;67742;51.972;5.682;2023-02-28T12:56:40;9.4;31.5
78448;SHT31;67742;51.972;5.682;2023-02-28T12:59:17;9.4;31.4
78448;SHT31;67742;51.972;5.682;2023-02-28T13:02:06;9.5;30.3
78448;SHT31;67742;51.972;5.682;2023-02-28T13:04:57;9.5;30.3
78448;SHT31;67742;51.972;5.682;2023-02-28T13:08:03;9.5;30.3
78448;SHT31;67742;51.972;5.682;2023-02-28T13:10:44;9.5;29.9
78448;SHT31;67742;51.972;5.682;2023-02-28T13:13:21;9.5;29.9
78448;SHT31;67742;51.972;5.682;2023-02-28T13:16:03;9.5;30.1
78448;SHT31;67742;51.972;5.682;2023-02-28T13:18:38;9.5;30.6
78448;SHT31;67742;51.972;5.682;2023-02-28T13:21:21;9.5;29.7
78448;SHT31;67742;51.972;5.682;2023-02-28T13:24:01;9.5;30.6
78448;SHT31;67742;51.972;5.682;2023-02-28T13:31:06;9.5;30.2
78448;SHT31;67742;51.972;5.682;2023-02-28T13:33:36;9.5;30.1
78448;SHT31;67742;51.972;5.682;2023-02-28T13:36:26;9.5;30.1
78448;SHT31;67742;51.972;5.682;2023-02-28T13:39:00;9.5;30.4
78448;SHT31;67742;51.972;5.682;2023-02-28T13:41:48;9.5;30.1
78448;SHT31;67742;51.972;5.682;2023-02-28T13:44:19;9.5;30.5
78448;SHT31;67742;51.972;5.682;2023-02-28T13:47:27;9.5;29.9
78448;SHT31;67742;51.972;5.682;2023-02-28T13:50:23;9.5;30.2
78448;SHT31;67742;51.972;5.682;2023-02-28T13:53:19;9.5;30.5
78448;SHT31;67742;51.972;5.682;2023-02-28T13:55:54;9.5;29.4
78448;SHT31;67742;51.972;5.682;2023-02-28T13:58:42;9.4;29.2
78448;SHT31;67742;51.972;5.682;2023-02-28T14:01:35;9.4;29.8
78448;SHT31;67742;51.972;5.682;2023-02-28T14:04:42;9.4;30.3
78448;SHT31;67742;51.972;5.682;2023-02-28T14:07:21;9.3;30.1
78448;SHT31;67742;51.972;5.682;2023-02-28T14:09:57;9.3;30.6
78448;SHT31;67742;51.972;5.682;2023-02-28T14:12:53;9.3;30.4
78448;SHT31;67742;51.972;5.682;2023-02-28T14:15:40;9.3;30.2
78448;SHT31;67742;51.972;5.682;2023-02-28T14:18:22;9.3;30.0
78448;SHT31;67742;51.972;5.682;2023-02-28T14:20:58;9.2;30.8
78448;SHT31;67742;51.972;5.682;2023-02-28T14:23:50;9.2;31.0
78448;SHT31;67742;51.972;5.682;2023-02-28T14:27:26;9.2;30.9
78448;SHT31;67742;51.972;5.682;2023-02-28T14:30:32;9.2;30.1
78448;SHT31;67742;51.972;5.682;2023-02-28T14:33:01;9.2;30.1
78448;SHT31;67742;51.972;5.682;2023-02-28T14:35:53;9.1;30.1
78448;SHT31;67742;51.972;5.682;2023-02-28T14:38:29;9.1;30.3
78448;SHT31;67742;51.972;5.682;2023-02-28T14:41:04;9.0;31.1
78448;SHT31;67742;51.972;5.682;2023-02-28T14:43:35;9.0;31.1
78448;SHT31;67742;51.972;5.682;2023-02-28T14:46:06;9.0;31.5
78448;SHT31;67742;51.972;5.682;2023-02-28T14:48:39;9.0;31.4
78448;SHT31;67742;51.972;5.682;2023-02-28T14:51:11;9.0;31.4
78448;SHT31;67742;51.972;5.682;2023-02-28T14:53:41;9.0;31.2
78448;SHT31;67742;51.972;5.682;2023-02-28T14:56:20;9.0;31.4
78448;SHT31;67742;51.972;5.682;2023-02-28T14:58:55;9.0;31.2
78448;SHT31;67742;51.972;5.682;2023-02-28T15:01:26;9.0;30.9
78448;SHT31;67742;51.972;5.682;2023-02-28T15:04:02;9.0;31.1
78448;SHT31;67742;51.972;5.682;2023-02-28T15:06:33;9.1;30.7
78448;SHT31;67742;51.972;5.682;2023-02-28T15:09:13;9.1;31.6
78448;SHT31;67742;51.972;5.682;2023-02-28T15:11:48;9.1;31.4
78448;SHT31;67742;51.972;5.682;2023-02-28T15:14:21;9.1;31.3
78448;SHT31;67742;51.972;5.682;2023-02-28T15:16:56;9.1;31.9
78448;SHT31;67742;51.972;5.682;2023-02-28T15:19:31;9.1;30.8
78448;SHT31;67742;51.972;5.682;2023-02-28T15:22:05;9.1;30.5
78448;SHT31;67742;51.972;5.682;2023-02-28T15:24:41;9.1;30.6
78448;SHT31;67742;51.972;5.682;2023-02-28T15:27:15;9.0;31.0
78448;SHT31;67742;51.972;5.682;2023-02-28T15:29:50;9.0;30.3
78448;SHT31;67742;51.972;5.682;2023-02-28T15:32:28;9.0;30.6
78448;SHT31;67742;51.972;5.682;2023-02-28T15:35:18;8.9;30.8
78448;SHT31;67742;51.972;5.682;2023-02-28T15:37:53;8.9;31.3
78448;SHT31;67742;51.972;5.682;2023-02-28T15:40:28;8.9;30.8
78448;SHT31;67742;51.972;5.682;2023-02-28T15:43:04;8.9;31.6
78448;SHT31;67742;51.972;5.682;2023-02-28T15:45:38;8.9;31.2
78448;SHT31;67742;51.972;5.682;2023-02-28T15:48:16;8.9;31.1
78448;SHT31;67742;51.972;5.682;2023-02-28T15:50:50;8.9;30.8
78448;SHT31;67742;51.972;5.682;2023-02-28T15:53:24;8.9;30.7
78448;SHT31;67742;51.972;5.682;2023-02-28T15:55:59;8.9;30.6
78448;SHT31;67742;51.972;5.682;2023-02-28T15:58:31;8.9;30.9
78448;SHT31;67742;51.972;5.682;2023-02-28T16:01:06;8.9;30.7
78448;SHT31;67742;51.972;5.682;2023-02-28T16:03:40;8.9;31.2
78448;SHT31;67742;51.972;5.682;2023-02-28T16:09:46;8.9;31.4
78448;SHT31;67742;51.972;5.682;2023-02-28T16:12:19;8.9;31.2
78448;SHT31;67742;51.972;5.682;2023-02-28T16:14:52;8.9;30.8
78448;SHT31;67742;51.972;5.682;2023-02-28T16:17:24;8.8;30.9
78448;SHT31;67742;51.972;5.682;2023-02-28T16:19:55;8.8;30.7
78448;SHT31;67742;51.972;5.682;2023-02-28T16:22:26;8.8;30.7
78448;SHT31;67742;51.972;5.682;2023-02-28T16:24:55;8.8;30.6
78448;SHT31;67742;51.972;5.682;2023-02-28T16:27:33;8.7;31.2
78448;SHT31;67742;51.972;5.682;2023-02-28T16:30:07;8.7;31.4
78448;SHT31;67742;51.972;5.682;2023-02-28T16:32:37;8.7;31.1
78448;SHT31;67742;51.972;5.682;2023-02-28T16:35:10;8.6;31.8
78448;SHT31;67742;51.972;5.682;2023-02-28T16:37:41;8.6;31.4
78448;SHT31;67742;51.972;5.682;2023-02-28T16:40:14;8.6;31.2
78448;SHT31;67742;51.972;5.682;2023-02-28T16:42:47;8.6;31.3
78448;SHT31;67742;51.972;5.682;2023-02-28T16:45:21;8.5;31.8
78448;SHT31;67742;51.972;5.682;2023-02-28T16:47:52;8.5;32.3
78448;SHT31;67742;51.972;5.682;2023-02-28T16:50:24;8.5;31.9
78448;SHT31;67742;51.972;5.682;2023-02-28T16:52:55;8.5;32.3
78448;SHT31;67742;51.972;5.682;2023-02-28T16:55:26;8.5;32.1
78448;SHT31;67742;51.972;5.682;2023-02-28T16:57:58;8.4;32.5
78448;SHT31;67742;51.972;5.682;2023-02-28T17:00:30;8.4;32.7
78448;SHT31;67742;51.972;5.682;2023-02-28T17:03:00;8.4;32.9
78448;SHT31;67742;51.972;5.682;2023-02-28T17:05:34;8.4;33.0
78448;SHT31;67742;51.972;5.682;2023-02-28T17:08:09;8.4;33.2
78448;SHT31;67742;51.972;5.682;2023-02-28T17:10:40;8.4;33.1
78448;SHT31;67742;51.972;5.682;2023-02-28T17:13:10;8.4;33.2
78448;SHT31;67742;51.972;5.682;2023-02-28T17:15:40;8.4;33.3